Time;durP1;ratioP1;P1;durP2;ratioP2;P2;SDS_P1;SDS_P2;PMS_P1;PMS_P2;Temp;Humidity;BMP_temperature;BMP_pressure;BME280_temperature;BME280_humidity;BME280_pressure;Samples;Min_cycle;Max_cycle;Signal;HPM_P1;HPM_P2
2022/03/01 00:02:12;;;;;;;10.75;6.00;;;5.80;99.90;;;;;;5050312;28;20060;-85
2022/03/01 00:04:38;;;;;;;8.63;5.03;;;5.40;99.90;;;;;;5050711;28;20025;-86
2022/03/01 00:07:04;;;;;;;10.80;5.28;;;5.60;99.90;;;;;;5046181;28;20478;-86
2022/03/01 00:09:30;;;;;;;9.35;4.72;;;5.60;99.90;;;;;;5041452;28;20022;-86
2022/03/01 00:11:56;;;;;;;9.48;4.93;;;5.50;99.90;;;;;;5051147;28;20052;-84
2022/03/01 00:14:22;;;;;;;8.60;5.22;;;5.50;99.90;;;;;;5050731;28;20033;-86
2022/03/01 00:16:48;;;;;;;9.70;5.60;;;5.50;99.90;;;;;;5052662;28;20114;-86
2022/03/01 00:19:13;;;;;;;10.30;6.05;;;5.50;99.90;;;;;;5043635;28;20028;-86
2022/03/01 00:21:39;;;;;;;16.73;7.25;;;5.40;99.90;;;;;;5044779;28;20029;-86
2022/03/01 00:24:05;;;;;;;13.55;6.38;;;5.10;99.90;;;;;;5041155;28;20025;-86
2022/03/01 00:26:31;;;;;;;20.95;7.68;;;5.20;99.90;;;;;;5050182;28;20523;-86
2022/03/01 00:28:57;;;;;;;15.38;7.63;;;5.30;99.90;;;;;;5047732;28;20107;-85
2022/03/01 00:31:22;;;;;;;21.40;8.55;;;5.20;99.90;;;;;;5050022;28;20036;-86
2022/03/01 00:33:48;;;;;;;21.10;8.27;;;5.30;99.90;;;;;;5049672;28;20036;-85
2022/03/01 00:36:14;;;;;;;17.10;7.97;;;5.40;99.90;;;;;;5049723;28;20052;-85
2022/03/01 00:38:39;;;;;;;20.60;8.88;;;5.40;99.90;;;;;;5036682;28;20040;-86
2022/03/01 00:41:05;;;;;;;17.10;7.50;;;5.30;99.90;;;;;;5050062;28;20052;-86
2022/03/01 00:43:31;;;;;;;18.35;7.57;;;5.20;99.90;;;;;;5049178;28;20083;-86
2022/03/01 00:45:57;;;;;;;23.10;8.85;;;5.20;99.90;;;;;;5044147;28;20025;-86
2022/03/01 00:48:22;;;;;;;18.10;7.32;;;4.90;99.90;;;;;;5047634;28;20025;-85
2022/03/01 00:50:48;;;;;;;17.75;7.45;;;4.90;99.90;;;;;;5049950;28;20048;-85
2022/03/01 00:53:15;;;;;;;20.77;8.15;;;5.00;99.90;;;;;;5050154;28;20044;-84
2022/03/01 00:55:40;;;;;;;17.52;7.50;;;5.00;99.90;;;;;;5051649;28;20020;-86
2022/03/01 00:58:06;;;;;;;15.77;6.88;;;5.00;99.90;;;;;;5049148;28;20036;-86
2022/03/01 01:00:33;;;;;;;14.55;7.35;;;5.00;99.90;;;;;;5049441;28;20467;-86
2022/03/01 01:03:00;;;;;;;16.15;8.15;;;4.80;99.90;;;;;;5048813;28;20037;-86
2022/03/01 01:05:26;;;;;;;15.82;7.07;;;4.90;99.90;;;;;;5049555;28;20501;-86
2022/03/01 01:07:53;;;;;;;16.67;7.97;;;4.90;99.90;;;;;;5050286;28;20025;-86
2022/03/01 01:10:19;;;;;;;16.85;6.65;;;4.90;99.90;;;;;;5048180;28;20025;-86
2022/03/01 01:12:44;;;;;;;14.32;5.97;;;4.80;99.90;;;;;;5048777;28;20025;-86
2022/03/01 01:15:14;;;;;;;12.05;5.75;;;4.60;99.90;;;;;;5048999;28;20036;-86
2022/03/01 01:17:40;;;;;;;11.02;5.55;;;4.70;99.90;;;;;;5049621;28;20025;-86
2022/03/01 01:20:07;;;;;;;12.27;6.40;;;4.50;99.90;;;;;;5049727;28;20083;-86
2022/03/01 01:22:39;;;;;;;11.95;5.68;;;4.30;99.90;;;;;;5048953;28;20108;-86
2022/03/01 01:25:06;;;;;;;9.50;5.38;;;4.50;99.90;;;;;;5044889;28;20025;-86
2022/03/01 01:27:32;;;;;;;10.18;5.20;;;4.60;99.90;;;;;;5046910;28;20047;-86
2022/03/01 01:29:58;;;;;;;10.38;5.30;;;4.60;99.90;;;;;;5048468;28;20029;-86
2022/03/01 01:32:24;;;;;;;8.70;5.13;;;4.60;99.90;;;;;;5035954;28;20535;-86
2022/03/01 01:34:50;;;;;;;8.95;5.28;;;4.60;99.90;;;;;;5051054;28;20556;-85
2022/03/01 01:37:16;;;;;;;9.63;4.57;;;4.60;99.90;;;;;;5043986;28;20128;-86
2022/03/01 01:39:41;;;;;;;8.02;4.97;;;4.60;99.90;;;;;;5048833;28;20071;-86
2022/03/01 01:42:07;;;;;;;9.88;5.28;;;4.60;99.90;;;;;;5047889;28;20064;-86
2022/03/01 01:44:33;;;;;;;7.50;4.68;;;4.50;99.90;;;;;;5048664;28;20021;-86
2022/03/01 01:46:59;;;;;;;8.88;4.90;;;4.50;99.90;;;;;;5047187;28;20057;-86
2022/03/01 01:49:25;;;;;;;9.02;4.53;;;4.50;99.90;;;;;;5049506;28;20080;-86
2022/03/01 01:51:50;;;;;;;7.93;4.82;;;4.50;99.90;;;;;;5045466;28;20502;-86
2022/03/01 01:54:17;;;;;;;11.00;5.35;;;4.50;99.90;;;;;;5048802;28;20132;-85
2022/03/01 01:56:42;;;;;;;9.85;4.65;;;4.60;99.90;;;;;;5048166;28;20043;-86
2022/03/01 01:59:08;;;;;;;7.30;4.57;;;4.50;99.90;;;;;;5049162;28;20033;-86
2022/03/01 02:01:34;;;;;;;9.85;4.70;;;4.50;99.90;;;;;;5049243;28;20064;-86
2022/03/01 02:04:00;;;;;;;6.43;4.43;;;4.50;99.90;;;;;;5044160;28;20029;-86
2022/03/01 02:06:27;;;;;;;6.68;4.03;;;4.50;99.90;;;;;;5046952;28;20017;-86
2022/03/01 02:08:53;;;;;;;8.38;4.68;;;4.40;99.90;;;;;;5049378;28;20028;-86
2022/03/01 02:11:19;;;;;;;9.52;5.38;;;4.40;99.90;;;;;;5047907;28;20395;-86
2022/03/01 02:13:45;;;;;;;9.18;4.80;;;4.30;99.90;;;;;;5050324;28;20033;-86
2022/03/01 02:16:11;;;;;;;10.68;5.57;;;4.10;99.90;;;;;;5048040;28;20063;-86
2022/03/01 02:18:38;;;;;;;9.93;4.97;;;4.20;99.90;;;;;;5048540;28;20033;-86
2022/03/01 02:21:04;;;;;;;8.35;5.63;;;4.30;99.90;;;;;;5047580;28;20024;-86
2022/03/01 02:23:30;;;;;;;8.98;4.93;;;4.20;99.90;;;;;;5048606;28;20021;-86
2022/03/01 02:25:55;;;;;;;9.57;5.00;;;4.30;99.90;;;;;;5047145;28;20018;-86
2022/03/01 02:28:21;;;;;;;9.95;5.45;;;4.30;99.90;;;;;;5048155;28;20414;-86
2022/03/01 02:30:47;;;;;;;9.65;5.80;;;4.30;99.90;;;;;;5048189;28;20388;-86
2022/03/01 02:33:13;;;;;;;7.70;4.35;;;4.30;99.90;;;;;;5048140;28;20495;-86
2022/03/01 02:35:39;;;;;;;8.68;4.32;;;4.30;99.90;;;;;;5030480;28;20014;-86
2022/03/01 02:38:05;;;;;;;7.47;4.15;;;4.30;99.90;;;;;;5047975;28;20044;-86
2022/03/01 02:40:31;;;;;;;9.57;4.50;;;4.30;99.90;;;;;;5047442;28;20031;-86
2022/03/01 02:42:57;;;;;;;6.03;3.67;;;4.30;99.90;;;;;;5049304;28;20111;-86
2022/03/01 02:45:23;;;;;;;8.73;4.45;;;4.30;99.90;;;;;;5049035;28;20036;-86
2022/03/01 02:47:49;;;;;;;7.93;5.07;;;4.20;99.90;;;;;;5046421;28;20016;-86
2022/03/01 02:50:16;;;;;;;6.30;4.47;;;4.20;99.90;;;;;;5047315;28;20076;-86
2022/03/01 02:52:42;;;;;;;6.80;3.90;;;4.10;99.90;;;;;;5041367;28;20401;-86
2022/03/01 02:55:09;;;;;;;7.00;4.10;;;4.10;99.90;;;;;;5051355;28;20026;-85
2022/03/01 02:57:35;;;;;;;6.80;3.85;;;4.10;99.90;;;;;;5050114;28;20029;-86
2022/03/01 03:00:02;;;;;;;7.85;3.75;;;4.10;99.90;;;;;;5042294;28;20021;-86
2022/03/01 03:02:28;;;;;;;5.90;3.90;;;4.00;99.90;;;;;;5052034;28;20497;-86
2022/03/01 03:04:54;;;;;;;7.07;3.40;;;4.10;99.90;;;;;;5051994;28;20033;-86
2022/03/01 03:07:20;;;;;;;5.93;3.22;;;4.00;99.90;;;;;;5050799;28;20021;-86
2022/03/01 03:09:46;;;;;;;7.03;3.80;;;4.00;99.90;;;;;;5051319;28;20021;-86
2022/03/01 03:12:12;;;;;;;8.98;3.90;;;4.00;99.90;;;;;;5051677;28;20025;-86
2022/03/01 03:14:37;;;;;;;7.43;4.10;;;4.00;99.90;;;;;;5050495;28;20021;-86
2022/03/01 03:17:04;;;;;;;7.38;4.28;;;4.10;99.90;;;;;;5051734;28;20494;-86
2022/03/01 03:19:31;;;;;;;7.35;4.70;;;4.10;99.90;;;;;;5052115;28;20029;-86
2022/03/01 03:21:57;;;;;;;9.45;4.20;;;4.00;99.90;;;;;;5048048;28;20028;-86
2022/03/01 03:24:23;;;;;;;6.07;3.97;;;3.90;99.90;;;;;;5049662;28;20066;-86
2022/03/01 03:26:49;;;;;;;7.07;3.92;;;3.80;99.90;;;;;;5051965;28;20029;-85
2022/03/01 03:29:15;;;;;;;7.93;4.03;;;3.90;99.90;;;;;;5050652;28;20398;-86
2022/03/01 03:31:42;;;;;;;7.50;4.65;;;3.80;99.90;;;;;;5053203;28;20029;-86
2022/03/01 03:34:09;;;;;;;10.45;4.90;;;3.90;99.90;;;;;;5050976;28;20557;-86
2022/03/01 03:36:36;;;;;;;7.60;4.20;;;3.80;99.90;;;;;;5048863;28;20025;-85
2022/03/01 03:39:04;;;;;;;8.20;4.60;;;3.80;99.90;;;;;;5050791;28;20070;-85
2022/03/01 03:41:29;;;;;;;6.40;3.53;;;3.80;99.90;;;;;;5051293;28;20292;-86
2022/03/01 03:43:55;;;;;;;6.15;3.92;;;3.80;99.90;;;;;;5050700;28;20028;-86
2022/03/01 03:46:21;;;;;;;8.45;3.88;;;3.70;99.90;;;;;;5050958;28;20029;-86
2022/03/01 03:48:47;;;;;;;8.63;4.10;;;3.80;99.90;;;;;;5050950;28;20430;-86
2022/03/01 03:51:13;;;;;;;4.13;2.90;;;3.70;99.90;;;;;;5050718;28;20047;-86
2022/03/01 03:53:41;;;;;;;4.53;2.95;;;3.60;99.90;;;;;;5048822;28;20045;-86
2022/03/01 03:56:07;;;;;;;5.70;3.28;;;3.60;99.90;;;;;;5051005;28;20021;-86
2022/03/01 03:58:32;;;;;;;5.78;3.63;;;3.20;99.90;;;;;;5051407;28;20379;-85
2022/03/01 04:00:58;;;;;;;6.70;3.40;;;3.30;99.90;;;;;;5045865;28;20025;-86
2022/03/01 04:03:24;;;;;;;5.60;3.38;;;3.40;99.90;;;;;;5049019;28;20029;-86
2022/03/01 04:05:50;;;;;;;5.53;3.15;;;3.40;99.90;;;;;;5050753;28;20406;-86
2022/03/01 04:08:17;;;;;;;5.43;3.33;;;3.50;99.90;;;;;;5050248;28;20028;-86
2022/03/01 04:10:44;;;;;;;6.18;3.47;;;3.60;99.90;;;;;;5052579;28;20048;-86
2022/03/01 04:13:10;;;;;;;5.60;3.45;;;3.40;99.90;;;;;;5050350;28;20025;-86
2022/03/01 04:15:35;;;;;;;6.38;3.38;;;3.10;99.90;;;;;;5032222;28;20028;-86
2022/03/01 04:18:02;;;;;;;5.07;3.67;;;3.30;99.90;;;;;;5049907;28;20468;-86
2022/03/01 04:20:28;;;;;;;5.05;2.80;;;3.50;99.90;;;;;;5050729;28;20059;-86
2022/03/01 04:22:53;;;;;;;3.63;2.70;;;3.50;99.90;;;;;;5049734;28;20450;-86
2022/03/01 04:25:19;;;;;;;5.82;3.13;;;3.40;99.90;;;;;;5049699;28;20033;-85
2022/03/01 04:27:45;;;;;;;5.57;3.42;;;3.40;99.90;;;;;;5050033;28;20032;-86
2022/03/01 04:30:12;;;;;;;7.30;3.20;;;3.40;99.90;;;;;;5049992;28;20116;-86
2022/03/01 04:32:42;;;;;;;6.18;3.20;;;3.40;99.90;;;;;;5049589;28;20039;-86
2022/03/01 04:35:09;;;;;;;4.53;2.70;;;3.40;99.90;;;;;;5050523;28;20104;-86
2022/03/01 04:37:39;;;;;;;3.63;2.72;;;3.30;99.90;;;;;;5031607;28;20478;-86
2022/03/01 04:40:06;;;;;;;5.75;2.80;;;3.30;99.90;;;;;;5049607;28;20029;-85
2022/03/01 04:42:32;;;;;;;3.63;2.53;;;3.20;99.90;;;;;;5047516;28;20104;-86
2022/03/01 04:44:59;;;;;;;4.95;2.90;;;3.30;99.90;;;;;;5049932;28;20028;-86
2022/03/01 04:47:25;;;;;;;5.07;3.42;;;3.20;99.90;;;;;;5037318;28;20024;-86
2022/03/01 04:49:51;;;;;;;4.03;2.83;;;3.20;99.90;;;;;;5051488;28;20426;-86
2022/03/01 04:52:17;;;;;;;6.93;3.22;;;3.20;99.90;;;;;;5045237;28;20086;-86
2022/03/01 04:54:43;;;;;;;4.10;2.92;;;3.20;99.90;;;;;;5050168;28;20499;-86
2022/03/01 04:57:09;;;;;;;4.43;2.83;;;3.20;99.90;;;;;;5048942;28;20074;-86
2022/03/01 04:59:35;;;;;;;6.72;2.65;;;3.10;99.90;;;;;;5050030;28;20013;-86
2022/03/01 05:02:01;;;;;;;6.47;2.88;;;3.20;99.90;;;;;;5049940;28;20029;-86
2022/03/01 05:04:27;;;;;;;5.65;3.35;;;3.20;99.90;;;;;;5050547;28;20040;-86
2022/03/01 05:06:54;;;;;;;4.75;3.25;;;3.20;99.90;;;;;;5048299;28;20021;-85
2022/03/01 05:09:23;;;;;;;4.60;3.22;;;3.20;99.90;;;;;;5048402;28;20027;-85
2022/03/01 05:11:50;;;;;;;5.95;3.60;;;3.20;99.90;;;;;;5047034;28;20029;-86
2022/03/01 05:14:16;;;;;;;4.82;2.78;;;3.10;99.90;;;;;;5048441;28;20071;-86
2022/03/01 05:16:42;;;;;;;5.35;3.22;;;3.10;99.90;;;;;;5049537;28;20041;-86
2022/03/01 05:19:09;;;;;;;6.03;3.25;;;3.00;99.90;;;;;;5048533;28;20028;-86
2022/03/01 05:21:35;;;;;;;5.60;3.38;;;3.00;99.90;;;;;;5049644;28;20036;-86
2022/03/01 05:24:01;;;;;;;6.38;3.13;;;3.00;99.90;;;;;;5049326;28;20075;-86
2022/03/01 05:26:28;;;;;;;5.10;3.00;;;3.00;99.90;;;;;;5048300;28;20026;-86
2022/03/01 05:28:54;;;;;;;7.00;3.65;;;2.90;99.90;;;;;;5051496;28;20147;-86
2022/03/01 05:31:19;;;;;;;6.38;3.28;;;2.90;99.90;;;;;;5049026;28;20039;-86
2022/03/01 05:33:46;;;;;;;6.32;3.95;;;2.90;99.90;;;;;;5048816;28;20568;-86
2022/03/01 05:36:13;;;;;;;4.72;3.45;;;2.90;99.90;;;;;;5039375;28;20478;-86
2022/03/01 05:38:39;;;;;;;5.22;3.08;;;2.90;99.90;;;;;;5048870;28;20025;-86
2022/03/01 05:41:04;;;;;;;4.55;2.85;;;2.80;99.90;;;;;;5046349;28;20111;-86
2022/03/01 05:43:31;;;;;;;6.95;3.03;;;2.80;99.90;;;;;;5049310;28;20449;-86
2022/03/01 05:45:57;;;;;;;5.35;3.50;;;2.80;99.90;;;;;;5048729;28;20025;-86
2022/03/01 05:48:23;;;;;;;3.05;2.60;;;2.80;99.90;;;;;;5048537;28;20021;-86
2022/03/01 05:50:49;;;;;;;6.85;2.65;;;2.70;99.90;;;;;;5048759;28;20490;-86
2022/03/01 05:53:15;;;;;;;4.55;2.88;;;2.80;99.90;;;;;;5048324;28;20053;-86
2022/03/01 05:55:41;;;;;;;4.78;2.90;;;2.60;99.90;;;;;;5049208;28;20128;-86
2022/03/01 05:58:07;;;;;;;5.25;3.00;;;2.60;99.90;;;;;;5042892;28;20029;-86
2022/03/01 06:00:33;;;;;;;5.22;3.35;;;2.70;99.90;;;;;;5046605;28;20394;-86
2022/03/01 06:02:58;;;;;;;6.28;3.08;;;2.60;99.90;;;;;;5048330;28;20021;-86
2022/03/01 06:05:25;;;;;;;6.47;3.20;;;2.60;99.90;;;;;;5048778;28;20549;-85
2022/03/01 06:07:51;;;;;;;6.70;3.13;;;2.30;99.90;;;;;;5050162;28;20017;-86
2022/03/01 06:10:16;;;;;;;4.38;2.83;;;2.30;99.90;;;;;;5048295;28;20025;-85
2022/03/01 06:12:42;;;;;;;7.57;3.97;;;2.30;99.90;;;;;;5048260;28;20032;-85
2022/03/01 06:15:09;;;;;;;7.15;3.25;;;2.40;99.90;;;;;;5048038;28;20483;-85
2022/03/01 06:17:35;;;;;;;4.97;3.22;;;2.50;99.90;;;;;;5048040;28;20109;-85
2022/03/01 06:20:02;;;;;;;6.85;4.10;;;2.50;99.90;;;;;;5046353;28;20033;-85
2022/03/01 06:22:28;;;;;;;6.28;3.38;;;2.60;99.90;;;;;;5049789;28;20025;-85
2022/03/01 06:24:55;;;;;;;4.13;2.80;;;2.50;99.90;;;;;;5048970;28;20033;-85
2022/03/01 06:27:22;;;;;;;8.57;4.00;;;2.60;99.90;;;;;;5048426;28;20043;-85
2022/03/01 06:29:48;;;;;;;6.28;3.30;;;2.60;99.90;;;;;;5035715;28;20029;-85
2022/03/01 06:32:14;;;;;;;6.35;3.97;;;2.60;99.90;;;;;;5047839;28;20104;-84
2022/03/01 06:34:40;;;;;;;5.82;3.22;;;2.50;99.90;;;;;;5048660;28;20128;-84
2022/03/01 06:37:12;;;;;;;6.03;3.38;;;2.50;99.90;;;;;;5025479;28;20025;-84
2022/03/01 06:39:40;;;;;;;6.55;3.50;;;2.70;99.90;;;;;;5040750;28;20066;-84
2022/03/01 06:42:05;;;;;;;5.72;3.45;;;2.60;99.90;;;;;;5047781;28;20021;-84
2022/03/01 06:44:31;;;;;;;6.43;3.80;;;2.70;99.90;;;;;;5048552;28;20491;-84
2022/03/01 06:46:57;;;;;;;7.20;3.85;;;2.70;99.90;;;;;;5049217;28;20018;-84
2022/03/01 06:49:22;;;;;;;6.45;3.20;;;2.70;99.90;;;;;;5048700;28;20037;-84
2022/03/01 06:51:48;;;;;;;5.28;3.33;;;2.60;99.90;;;;;;5048064;28;20380;-84
2022/03/01 06:54:15;;;;;;;6.07;3.13;;;2.70;99.90;;;;;;5048102;28;20094;-84
2022/03/01 06:56:41;;;;;;;5.88;3.20;;;2.80;99.90;;;;;;5047692;28;20025;-84
2022/03/01 06:59:06;;;;;;;6.65;3.60;;;2.80;99.90;;;;;;5045659;28;20031;-84
2022/03/01 07:01:32;;;;;;;5.60;3.47;;;2.80;99.90;;;;;;5048693;28;20025;-84
2022/03/01 07:03:58;;;;;;;6.60;3.65;;;2.80;99.90;;;;;;5047811;28;20029;-84
2022/03/01 07:06:23;;;;;;;5.55;3.63;;;2.90;99.90;;;;;;5047503;28;20490;-84
2022/03/01 07:08:49;;;;;;;5.05;3.33;;;3.00;99.90;;;;;;5047832;28;20033;-85
2022/03/01 07:11:16;;;;;;;5.80;3.97;;;3.50;99.90;;;;;;5047706;28;20483;-85
2022/03/01 07:13:41;;;;;;;5.22;3.60;;;4.30;99.90;;;;;;5048451;28;20108;-85
2022/03/01 07:16:07;;;;;;;6.18;3.38;;;5.10;99.90;;;;;;5042722;28;20064;-86
2022/03/01 07:18:33;;;;;;;5.07;2.95;;;7.00;99.90;;;;;;5046181;28;20107;-86
2022/03/01 07:20:59;;;;;;;7.68;3.60;;;7.90;99.20;;;;;;5047748;28;20025;-86
2022/03/01 07:23:24;;;;;;;7.18;3.72;;;8.30;98.40;;;;;;5048184;28;20032;-86
2022/03/01 07:25:50;;;;;;;6.05;3.60;;;9.60;96.80;;;;;;5049845;28;20044;-86
2022/03/01 07:28:16;;;;;;;8.30;4.78;;;10.50;94.70;;;;;;5047740;28;20028;-86
2022/03/01 07:30:42;;;;;;;10.10;5.72;;;12.00;92.50;;;;;;5050859;28;20029;-86
2022/03/01 07:33:07;;;;;;;10.98;5.80;;;12.60;91.10;;;;;;5051224;28;20557;-86
2022/03/01 07:35:33;;;;;;;11.55;5.75;;;11.50;92.40;;;;;;5051422;28;20025;-86
2022/03/01 07:37:59;;;;;;;10.52;5.20;;;12.30;92.00;;;;;;5049733;28;20033;-86
2022/03/01 07:40:26;;;;;;;12.45;6.47;;;14.10;90.00;;;;;;5051927;28;20449;-85
2022/03/01 07:42:53;;;;;;;11.50;5.90;;;15.20;85.80;;;;;;5051074;28;20032;-85
2022/03/01 07:45:19;;;;;;;11.88;6.32;;;15.90;84.10;;;;;;5050548;28;20025;-85
2022/03/01 07:47:45;;;;;;;11.00;6.00;;;16.30;82.20;;;;;;5050154;28;20028;-85
2022/03/01 07:50:11;;;;;;;11.88;5.70;;;17.10;80.60;;;;;;5050978;28;20120;-85
2022/03/01 07:52:37;;;;;;;9.15;4.80;;;17.60;79.60;;;;;;5051530;28;20566;-85
2022/03/01 07:55:04;;;;;;;10.57;5.38;;;17.80;77.30;;;;;;5046940;28;20112;-85
2022/03/01 07:57:30;;;;;;;10.68;5.03;;;17.60;78.60;;;;;;5049464;28;20033;-85
2022/03/01 07:59:56;;;;;;;7.55;3.90;;;18.00;77.60;;;;;;5050538;28;20024;-85
2022/03/01 08:02:21;;;;;;;7.10;4.13;;;18.80;76.10;;;;;;5050604;28;20514;-85
2022/03/01 08:04:47;;;;;;;9.05;3.90;;;18.30;76.00;;;;;;5052639;28;20483;-85
2022/03/01 08:07:13;;;;;;;6.82;4.22;;;17.70;76.70;;;;;;5050320;28;20071;-85
2022/03/01 08:09:40;;;;;;;9.32;4.57;;;15.70;81.80;;;;;;5048500;28;20040;-85
2022/03/01 08:12:07;;;;;;;7.65;3.75;;;14.00;86.80;;;;;;5046126;28;20091;-85
2022/03/01 08:14:34;;;;;;;7.22;4.97;;;12.90;90.20;;;;;;5050031;28;20028;-85
2022/03/01 08:17:01;;;;;;;6.13;3.53;;;13.30;91.10;;;;;;5048605;28;20024;-85
2022/03/01 08:19:27;;;;;;;7.15;4.40;;;13.90;89.90;;;;;;5051224;28;20029;-84
2022/03/01 08:21:52;;;;;;;7.72;4.10;;;15.60;85.60;;;;;;5049805;28;20516;-84
2022/03/01 08:24:18;;;;;;;4.03;3.35;;;17.40;82.70;;;;;;5049890;28;20027;-85
2022/03/01 08:26:44;;;;;;;6.35;3.75;;;18.10;79.80;;;;;;5049200;28;20017;-84
2022/03/01 08:29:10;;;;;;;6.32;3.90;;;16.60;82.00;;;;;;5050095;28;20410;-84
2022/03/01 08:31:39;;;;;;;9.00;4.43;;;16.50;82.80;;;;;;5050580;28;20154;-84
2022/03/01 08:34:05;;;;;;;6.07;3.70;;;17.80;80.80;;;;;;5047359;28;20160;-84
2022/03/01 08:36:30;;;;;;;4.32;3.25;;;18.70;79.20;;;;;;5048002;28;20108;-84
2022/03/01 08:38:56;;;;;;;6.07;4.07;;;19.50;78.30;;;;;;5050278;28;20094;-84
2022/03/01 08:41:23;;;;;;;5.95;3.63;;;21.00;75.40;;;;;;5049313;28;20504;-83
2022/03/01 08:43:49;;;;;;;7.00;3.88;;;20.50;74.10;;;;;;5051467;28;20013;-84
2022/03/01 08:46:15;;;;;;;5.60;3.40;;;21.10;74.10;;;;;;5049698;28;20017;-84
2022/03/01 08:48:41;;;;;;;8.43;3.85;;;21.80;74.40;;;;;;5047741;28;20044;-83
2022/03/01 08:51:06;;;;;;;5.05;3.20;;;20.90;73.80;;;;;;5049231;28;20032;-83
2022/03/01 08:53:33;;;;;;;5.95;3.88;;;21.00;75.50;;;;;;5050597;28;20029;-83
2022/03/01 08:55:59;;;;;;;7.43;4.80;;;19.20;75.00;;;;;;5048038;28;20031;-83
2022/03/01 08:58:25;;;;;;;8.45;4.40;;;19.00;76.50;;;;;;5049607;28;20051;-83
2022/03/01 09:00:51;;;;;;;10.25;5.47;;;19.40;77.40;;;;;;5050409;28;20075;-84
2022/03/01 09:03:17;;;;;;;15.10;7.10;;;19.10;77.60;;;;;;5049604;28;20025;-83
2022/03/01 09:05:43;;;;;;;14.30;8.02;;;18.50;77.50;;;;;;5049262;28;20024;-83
2022/03/01 09:08:12;;;;;;;17.42;8.52;;;17.50;81.70;;;;;;5049824;28;20015;-83
2022/03/01 09:10:39;;;;;;;17.80;7.38;;;18.10;81.50;;;;;;5049815;28;20025;-83
2022/03/01 09:13:05;;;;;;;17.77;7.40;;;17.40;82.90;;;;;;5044201;28;20035;-83
2022/03/01 09:15:32;;;;;;;14.38;6.18;;;17.90;81.80;;;;;;5047600;28;20064;-83
2022/03/01 09:17:59;;;;;;;13.40;6.45;;;17.60;81.70;;;;;;5049931;28;20032;-82
2022/03/01 09:20:26;;;;;;;11.88;5.60;;;18.20;81.60;;;;;;5046498;28;20079;-82
2022/03/01 09:22:53;;;;;;;9.18;4.97;;;17.40;83.80;;;;;;5050880;28;20036;-82
2022/03/01 09:25:19;;;;;;;9.65;4.47;;;16.50;84.50;;;;;;5048832;28;20112;-83
2022/03/01 09:27:45;;;;;;;13.90;5.55;;;16.20;85.80;;;;;;5046856;28;20086;-82
2022/03/01 09:30:11;;;;;;;6.07;4.15;;;15.70;85.40;;;;;;5044719;28;20491;-82
2022/03/01 09:32:37;;;;;;;10.70;4.10;;;15.90;87.50;;;;;;5048895;28;20025;-82
2022/03/01 09:35:03;;;;;;;6.18;3.38;;;15.90;86.90;;;;;;5048372;28;20032;-82
2022/03/01 09:37:31;;;;;;;10.38;4.32;;;15.50;86.60;;;;;;5050169;28;20033;-82
2022/03/01 09:40:01;;;;;;;6.45;3.78;;;15.50;88.00;;;;;;5048634;28;20032;-82
2022/03/01 09:42:28;;;;;;;8.20;3.70;;;15.60;87.50;;;;;;5048684;28;20037;-82
2022/03/01 09:44:54;;;;;;;8.18;4.43;;;15.60;89.10;;;;;;5048673;28;20036;-82
2022/03/01 09:47:21;;;;;;;7.05;4.35;;;15.60;85.60;;;;;;5047903;28;20148;-81
2022/03/01 09:49:47;;;;;;;8.05;4.88;;;14.90;87.60;;;;;;5042687;28;20049;-82
2022/03/01 09:52:14;;;;;;;8.45;4.40;;;15.10;88.60;;;;;;5045591;28;20029;-81
2022/03/01 09:54:40;;;;;;;8.35;4.20;;;15.40;89.00;;;;;;5047048;28;20060;-81
2022/03/01 09:57:06;;;;;;;12.90;5.30;;;15.00;86.60;;;;;;5048548;28;20043;-81
2022/03/01 09:59:32;;;;;;;8.45;4.15;;;14.50;89.30;;;;;;5048477;28;20491;-81
2022/03/01 10:01:58;;;;;;;10.23;5.22;;;14.40;89.50;;;;;;5049631;28;20025;-81
2022/03/01 10:04:25;;;;;;;9.15;5.07;;;14.00;89.40;;;;;;5049452;28;20487;-81
2022/03/01 10:06:51;;;;;;;10.63;4.75;;;14.40;89.90;;;;;;5048344;28;20017;-81
2022/03/01 10:09:27;;;;;;;8.50;3.45;;;14.30;90.30;;;;;;5047707;28;20099;-81
2022/03/01 10:11:53;;;;;;;6.93;3.92;;;14.30;90.10;;;;;;5046759;28;20025;-81
2022/03/01 10:14:29;;;;;;;6.85;3.55;;;14.30;90.90;;;;;;5047611;28;20078;-81
2022/03/01 10:16:56;;;;;;;7.75;3.90;;;14.80;88.70;;;;;;5050288;28;20025;-81
2022/03/01 10:19:22;;;;;;;6.63;3.10;;;14.20;90.10;;;;;;5048142;28;20033;-81
2022/03/01 10:21:57;;;;;;;7.07;3.10;;;14.10;89.40;;;;;;5048041;28;20025;-81
2022/03/01 10:24:22;;;;;;;11.18;4.68;;;14.10;90.80;;;;;;5046492;28;20095;-81
2022/03/01 10:26:49;;;;;;;6.00;3.70;;;14.00;89.50;;;;;;5046747;28;20530;-81
2022/03/01 10:29:16;;;;;;;8.23;3.92;;;13.80;90.00;;;;;;5048396;28;20132;-82
2022/03/01 10:31:49;;;;;;;8.10;3.60;;;13.80;92.10;;;;;;5046382;28;20687;-81
2022/03/01 10:34:16;;;;;;;10.45;3.75;;;14.20;91.10;;;;;;5047610;28;20033;-81
2022/03/01 10:36:44;;;;;;;7.35;3.90;;;14.40;91.10;;;;;;5047978;28;20021;-81
2022/03/01 10:39:11;;;;;;;7.05;3.42;;;14.30;91.30;;;;;;5047700;28;20032;-81
2022/03/01 10:41:43;;;;;;;9.70;4.60;;;14.30;91.80;;;;;;5048553;28;20061;-81
2022/03/01 10:44:17;;;;;;;13.60;5.47;;;14.20;92.20;;;;;;5048572;28;20036;-81
2022/03/01 10:46:50;;;;;;;13.00;6.07;;;14.20;91.80;;;;;;5048694;28;20048;-81
2022/03/01 10:49:18;;;;;;;8.73;4.50;;;14.50;92.20;;;;;;5045521;28;20514;-81
2022/03/01 10:52:04;;;;;;;10.63;5.03;;;14.50;92.00;;;;;;5040075;28;20025;-81
2022/03/01 10:54:38;;;;;;;9.63;4.05;;;14.40;91.80;;;;;;5047260;28;20478;-81
2022/03/01 10:57:07;;;;;;;7.95;3.72;;;14.50;91.60;;;;;;5047997;28;20082;-81
2022/03/01 10:59:35;;;;;;;7.47;4.22;;;14.50;91.20;;;;;;5048282;28;20033;-81
2022/03/01 11:02:02;;;;;;;6.88;3.58;;;14.60;91.30;;;;;;5048831;28;20021;-81
2022/03/01 11:04:29;;;;;;;11.48;4.35;;;14.70;91.50;;;;;;5052392;28;20025;-81
2022/03/01 11:06:58;;;;;;;6.43;3.55;;;14.50;91.20;;;;;;5051404;28;20031;-81
2022/03/01 11:09:26;;;;;;;10.30;4.00;;;14.60;91.60;;;;;;5047406;28;20052;-81
2022/03/01 11:11:54;;;;;;;7.53;3.28;;;14.50;91.60;;;;;;5050471;28;20490;-81
2022/03/01 11:14:43;;;;;;;6.10;3.33;;;14.60;91.90;;;;;;5051374;28;20025;-82
2022/03/01 11:17:18;;;;;;;7.30;3.22;;;14.80;92.20;;;;;;5051549;28;20021;-81
2022/03/01 11:19:53;;;;;;;10.02;4.00;;;14.80;90.50;;;;;;5052963;28;20104;-81
2022/03/01 11:22:30;;;;;;;7.18;3.28;;;14.70;88.80;;;;;;5051079;28;20075;-81
2022/03/01 11:24:57;;;;;;;8.95;3.13;;;14.90;88.80;;;;;;5049379;28;20033;-81
2022/03/01 11:27:26;;;;;;;8.48;4.07;;;14.80;88.60;;;;;;5046765;28;20108;-81
2022/03/01 11:30:03;;;;;;;5.70;3.35;;;14.90;89.50;;;;;;5050688;28;20021;-81
2022/03/01 11:32:38;;;;;;;6.50;3.05;;;15.20;88.80;;;;;;5040970;28;20061;-81
2022/03/01 11:35:04;;;;;;;6.68;3.00;;;14.90;84.90;;;;;;5051935;28;20513;-81
2022/03/01 11:37:30;;;;;;;8.32;3.65;;;15.00;87.10;;;;;;5052703;28;20478;-81
2022/03/01 11:40:04;;;;;;;7.32;3.08;;;15.10;86.90;;;;;;5051010;28;20029;-81
2022/03/01 11:42:34;;;;;;;5.20;2.67;;;15.10;88.40;;;;;;5051033;28;20033;-81
2022/03/01 11:45:09;;;;;;;5.20;3.05;;;15.20;87.70;;;;;;5039937;28;20039;-81
2022/03/01 11:47:34;;;;;;;7.43;3.28;;;15.10;88.50;;;;;;5042126;28;20505;-81
2022/03/01 11:50:16;;;;;;;9.38;3.30;;;15.20;89.50;;;;;;5042194;28;20128;-82
2022/03/01 11:53:01;;;;;;;4.50;2.83;;;15.20;89.80;;;;;;5049269;28;20068;-81
2022/03/01 11:55:41;;;;;;;5.40;3.20;;;15.30;87.10;;;;;;5051457;28;20529;-81
2022/03/01 11:58:07;;;;;;;7.78;2.90;;;15.30;86.70;;;;;;5050497;28;20508;-81
2022/03/01 12:00:35;;;;;;;3.75;2.80;;;15.30;86.00;;;;;;5050578;28;20025;-81
2022/03/01 12:03:01;;;;;;;3.53;2.22;;;15.30;88.30;;;;;;5039244;28;20043;-81
2022/03/01 12:05:27;;;;;;;9.90;3.15;;;15.30;85.80;;;;;;5041350;28;20036;-81
2022/03/01 12:07:54;;;;;;;8.95;2.60;;;15.30;88.10;;;;;;5052428;28;20018;-81
2022/03/01 12:10:23;;;;;;;5.22;2.58;;;15.20;86.60;;;;;;5048162;28;20554;-81
2022/03/01 12:12:52;;;;;;;10.38;3.00;;;15.10;85.30;;;;;;5049994;28;20035;-81
2022/03/01 12:15:37;;;;;;;5.03;2.30;;;15.10;84.90;;;;;;5049560;28;20013;-81
2022/03/01 12:18:14;;;;;;;6.20;2.55;;;15.40;87.10;;;;;;5050470;28;20036;-81
2022/03/01 12:20:45;;;;;;;4.47;2.53;;;15.40;84.90;;;;;;5049915;28;20513;-81
2022/03/01 12:23:23;;;;;;;5.57;2.03;;;15.40;84.30;;;;;;5050605;28;20029;-81
2022/03/01 12:25:48;;;;;;;2.78;2.25;;;15.30;83.60;;;;;;5051680;28;20033;-82
2022/03/01 12:28:16;;;;;;;6.55;2.40;;;15.30;84.00;;;;;;5046363;28;20516;-81
2022/03/01 12:30:44;;;;;;;4.88;2.05;;;15.50;86.00;;;;;;5047987;28;20028;-81
2022/03/01 12:33:17;;;;;;;8.20;2.60;;;15.50;84.60;;;;;;5050377;28;20021;-81
2022/03/01 12:35:44;;;;;;;4.03;2.10;;;15.60;84.40;;;;;;5047374;28;20052;-82
2022/03/01 12:38:13;;;;;;;6.45;2.53;;;15.60;83.60;;;;;;5050158;28;20032;-81
2022/03/01 12:40:41;;;;;;;6.05;2.03;;;15.50;85.00;;;;;;5052005;28;20033;-81
2022/03/01 12:43:09;;;;;;;4.28;2.20;;;15.40;83.10;;;;;;5046728;28;20029;-81
2022/03/01 12:45:44;;;;;;;4.32;2.20;;;15.30;81.90;;;;;;5042667;28;20075;-81
2022/03/01 12:48:13;;;;;;;12.02;2.55;;;15.20;82.30;;;;;;5046825;28;20021;-81
2022/03/01 12:50:50;;;;;;;4.38;2.10;;;15.30;83.30;;;;;;5043768;28;20049;-81